Time;durP1;ratioP1;P1;durP2;ratioP2;P2;SDS_P1;SDS_P2;PMS_P1;PMS_P2;Temp;Humidity;BMP_temperature;BMP_pressure;BME280_temperature;BME280_humidity;BME280_pressure;Samples;Min_cycle;Max_cycle;Signal;HPM_P1;HPM_P2
2021/05/03 00:01:07;;;;;;;8.90;4.18;;;19.30;97.20;;;;;;5092336;28;20146;-44
2021/05/03 00:03:34;;;;;;;8.50;4.60;;;19.30;97.40;;;;;;5091686;28;20059;-44
2021/05/03 00:06:02;;;;;;;9.82;4.20;;;19.20;97.60;;;;;;5092556;28;20182;-43
2021/05/03 00:08:29;;;;;;;13.52;3.60;;;19.20;97.60;;;;;;5074926;28;20494;-43
2021/05/03 00:10:57;;;;;;;7.90;4.00;;;19.20;97.80;;;;;;5075202;28;20135;-43
2021/05/03 00:13:26;;;;;;;14.63;4.93;;;19.20;97.90;;;;;;5091307;28;20079;-43
2021/05/03 00:15:54;;;;;;;10.30;4.90;;;19.20;98.00;;;;;;5092412;28;20047;-43
2021/05/03 00:18:21;;;;;;;15.13;4.60;;;19.20;98.00;;;;;;5091379;28;20105;-43
2021/05/03 00:20:48;;;;;;;12.30;4.03;;;19.20;98.10;;;;;;5091918;28;20044;-43
2021/05/03 00:23:15;;;;;;;11.02;5.13;;;19.20;98.20;;;;;;5091434;28;20059;-45
2021/05/03 00:25:43;;;;;;;6.50;3.55;;;19.20;98.20;;;;;;5093430;28;20056;-43
2021/05/03 00:28:10;;;;;;;11.48;4.20;;;19.10;98.30;;;;;;5090667;28;20128;-44
2021/05/03 00:30:38;;;;;;;14.55;4.80;;;19.10;98.40;;;;;;5092203;28;20052;-44
2021/05/03 00:33:05;;;;;;;10.32;3.10;;;19.10;98.30;;;;;;5091271;28;20055;-45
2021/05/03 00:35:34;;;;;;;12.32;4.72;;;19.10;98.50;;;;;;5092641;28;20075;-43
2021/05/03 00:38:01;;;;;;;12.70;4.55;;;19.10;98.50;;;;;;5091388;28;20079;-43
2021/05/03 00:40:29;;;;;;;12.55;4.65;;;19.10;98.70;;;;;;5091941;28;20093;-44
2021/05/03 00:42:56;;;;;;;12.77;4.43;;;19.10;98.60;;;;;;5091015;28;20048;-44
2021/05/03 00:45:24;;;;;;;9.35;4.25;;;19.10;98.60;;;;;;5074822;28;20051;-43
2021/05/03 00:47:52;;;;;;;12.48;5.05;;;19.10;98.50;;;;;;5074655;28;20052;-44
2021/05/03 00:50:21;;;;;;;23.02;5.38;;;19.10;98.40;;;;;;5092001;28;20498;-43
2021/05/03 00:52:48;;;;;;;10.70;4.00;;;19.10;98.30;;;;;;5074381;28;20127;-43
2021/05/03 00:55:15;;;;;;;7.20;3.28;;;19.10;98.20;;;;;;5092026;28;20139;-43
2021/05/03 00:57:45;;;;;;;13.60;4.38;;;19.00;98.10;;;;;;5074644;28;20476;-43
2021/05/03 01:00:13;;;;;;;9.10;4.20;;;19.00;97.90;;;;;;5090806;28;20490;-43
2021/05/03 01:02:41;;;;;;;7.35;4.05;;;19.00;97.60;;;;;;5074350;28;20087;-43
2021/05/03 01:05:09;;;;;;;10.52;3.80;;;19.00;97.40;;;;;;5075202;28;20505;-43
2021/05/03 01:07:37;;;;;;;14.23;3.20;;;19.00;97.10;;;;;;5076182;28;20070;-44
2021/05/03 01:10:05;;;;;;;9.60;3.53;;;19.00;96.70;;;;;;5062303;28;20048;-44
2021/05/03 01:12:32;;;;;;;10.60;3.78;;;19.00;96.70;;;;;;5094965;28;20047;-43
2021/05/03 01:14:59;;;;;;;10.15;3.80;;;19.00;96.60;;;;;;5096771;28;20047;-43
2021/05/03 01:17:34;;;;;;;16.45;4.53;;;19.00;96.50;;;;;;5094572;28;20085;-44
2021/05/03 01:20:13;;;;;;;9.65;3.50;;;19.00;96.20;;;;;;5095398;28;20036;-43
2021/05/03 01:22:41;;;;;;;6.57;3.25;;;19.00;95.30;;;;;;5096380;28;20062;-43
2021/05/03 01:25:10;;;;;;;7.43;2.83;;;19.00;94.90;;;;;;5061929;28;20127;-43
2021/05/03 01:27:38;;;;;;;8.80;3.50;;;19.00;94.20;;;;;;5095717;28;20082;-43
2021/05/03 01:30:07;;;;;;;5.28;2.80;;;19.00;93.80;;;;;;5095514;28;20101;-43
2021/05/03 01:32:34;;;;;;;6.47;2.42;;;19.00;93.20;;;;;;5095795;28;20052;-43
2021/05/03 01:35:03;;;;;;;8.50;4.07;;;19.00;93.00;;;;;;5095104;28;20076;-43
2021/05/03 01:37:30;;;;;;;6.30;3.20;;;19.00;92.70;;;;;;5061304;28;20044;-43
2021/05/03 01:39:58;;;;;;;5.50;2.63;;;19.00;92.40;;;;;;5095271;28;20097;-43
2021/05/03 01:42:26;;;;;;;6.15;3.42;;;19.00;92.30;;;;;;5094401;28;20048;-46
2021/05/03 01:44:59;;;;;;;4.35;2.65;;;19.00;91.60;;;;;;5094684;28;20079;-44
2021/05/03 01:47:27;;;;;;;3.53;2.30;;;19.00;91.30;;;;;;5095285;28;20054;-44
2021/05/03 01:50:04;;;;;;;5.47;2.53;;;19.10;91.10;;;;;;5095090;28;20063;-43
2021/05/03 01:52:32;;;;;;;6.80;2.63;;;19.10;91.20;;;;;;5077387;28;20048;-43
2021/05/03 01:55:00;;;;;;;7.07;3.08;;;19.10;91.00;;;;;;5078111;28;20074;-43
2021/05/03 01:57:30;;;;;;;7.07;2.58;;;19.10;91.00;;;;;;5077800;28;20080;-43
2021/05/03 01:59:57;;;;;;;4.85;2.70;;;19.10;91.00;;;;;;5094503;28;20121;-44
2021/05/03 02:02:25;;;;;;;4.25;2.22;;;19.10;90.90;;;;;;5095384;28;20081;-46
2021/05/03 02:04:53;;;;;;;5.38;2.72;;;19.10;90.80;;;;;;5061590;28;20044;-43
2021/05/03 02:07:21;;;;;;;7.00;4.40;;;19.10;90.30;;;;;;5095070;28;20048;-44
2021/05/03 02:09:48;;;;;;;4.93;2.95;;;19.10;90.20;;;;;;5061019;28;20048;-43
2021/05/03 02:12:15;;;;;;;7.32;2.67;;;19.00;90.20;;;;;;5094785;28;20147;-43
2021/05/03 02:14:44;;;;;;;6.47;2.83;;;19.00;90.20;;;;;;5094281;28;20040;-46
2021/05/03 02:17:11;;;;;;;6.72;2.42;;;18.90;90.30;;;;;;5093610;28;20079;-44
2021/05/03 02:19:39;;;;;;;4.35;1.95;;;18.90;90.20;;;;;;5077516;28;20079;-43
2021/05/03 02:22:07;;;;;;;4.63;2.40;;;18.80;89.70;;;;;;5095097;28;20044;-44
2021/05/03 02:24:34;;;;;;;6.82;3.30;;;18.80;88.50;;;;;;5056751;28;20101;-43
2021/05/03 02:27:01;;;;;;;4.75;1.83;;;18.70;87.30;;;;;;5093235;28;20048;-45
2021/05/03 02:29:28;;;;;;;5.18;1.92;;;18.70;87.10;;;;;;5077243;28;20044;-43
2021/05/03 02:31:56;;;;;;;4.57;2.00;;;18.60;86.10;;;;;;5093726;28;20112;-44
2021/05/03 02:34:23;;;;;;;5.07;1.95;;;18.60;85.70;;;;;;5093112;28;20100;-44
2021/05/03 02:36:55;;;;;;;5.32;2.38;;;18.60;85.30;;;;;;5077124;28;20585;-44
2021/05/03 02:39:22;;;;;;;4.10;2.28;;;18.60;85.30;;;;;;5076861;28;20047;-44
2021/05/03 02:41:50;;;;;;;3.72;1.75;;;18.60;84.30;;;;;;5091937;28;20047;-43
2021/05/03 02:44:17;;;;;;;9.35;2.38;;;18.50;83.80;;;;;;5093153;28;20056;-44
2021/05/03 02:46:44;;;;;;;3.20;1.45;;;18.50;83.10;;;;;;5076965;28;20059;-43
2021/05/03 02:49:12;;;;;;;2.97;1.58;;;18.50;83.20;;;;;;5093521;28;20087;-43
2021/05/03 02:51:39;;;;;;;3.72;1.85;;;18.50;83.20;;;;;;5093884;28;20135;-43
2021/05/03 02:54:07;;;;;;;3.63;1.60;;;18.40;82.80;;;;;;5092894;28;20051;-43
2021/05/03 02:56:34;;;;;;;1.98;1.10;;;18.40;81.90;;;;;;5093674;28;20094;-43
2021/05/03 02:59:01;;;;;;;2.30;1.48;;;18.40;79.80;;;;;;5092386;28;20074;-44
2021/05/03 03:01:29;;;;;;;2.72;1.40;;;18.50;78.70;;;;;;5093777;28;20436;-43
2021/05/03 03:03:56;;;;;;;4.22;1.75;;;18.60;78.80;;;;;;5093051;28;20127;-43
2021/05/03 03:06:23;;;;;;;1.75;1.20;;;18.60;78.00;;;;;;5094504;28;20078;-44
2021/05/03 03:08:51;;;;;;;2.45;1.23;;;18.60;78.30;;;;;;5076020;28;20044;-43
2021/05/03 03:11:20;;;;;;;6.07;1.77;;;18.60;78.10;;;;;;5094187;28;20052;-44
2021/05/03 03:13:47;;;;;;;2.72;1.50;;;18.70;78.30;;;;;;5075558;28;20048;-43
2021/05/03 03:16:21;;;;;;;4.18;1.90;;;18.60;79.00;;;;;;5092913;28;20497;-43
2021/05/03 03:18:49;;;;;;;2.83;1.63;;;18.60;79.50;;;;;;5092682;28;20135;-43
2021/05/03 03:21:17;;;;;;;2.70;1.25;;;18.60;79.40;;;;;;5059191;28;20044;-43
2021/05/03 03:23:44;;;;;;;2.78;1.80;;;18.60;78.50;;;;;;5092268;28;20074;-43
2021/05/03 03:26:12;;;;;;;4.60;1.65;;;18.60;78.00;;;;;;5075884;28;20044;-43
2021/05/03 03:28:39;;;;;;;3.38;1.35;;;18.60;78.10;;;;;;5093424;28;20481;-43
2021/05/03 03:31:07;;;;;;;2.22;1.60;;;18.60;78.90;;;;;;5092091;28;20044;-43
2021/05/03 03:33:35;;;;;;;5.13;1.73;;;18.60;78.40;;;;;;5092150;28;20508;-43
2021/05/03 03:36:02;;;;;;;3.42;1.63;;;18.60;78.10;;;;;;5092885;28;20097;-43
2021/05/03 03:38:30;;;;;;;3.78;1.40;;;18.60;78.50;;;;;;5059011;28;20452;-44
2021/05/03 03:40:57;;;;;;;3.47;2.00;;;18.60;79.00;;;;;;5092673;28;20075;-43
2021/05/03 03:43:25;;;;;;;6.00;1.75;;;18.50;79.40;;;;;;5091980;28;20048;-45
2021/05/03 03:45:52;;;;;;;2.40;1.48;;;18.40;79.20;;;;;;5093917;28;20079;-43
2021/05/03 03:48:20;;;;;;;7.10;1.80;;;18.40;79.00;;;;;;5092087;28;20044;-43
2021/05/03 03:50:47;;;;;;;4.95;1.52;;;18.40;78.30;;;;;;5092476;28;20407;-43
2021/05/03 03:53:14;;;;;;;3.15;1.33;;;18.30;78.30;;;;;;5091866;28;20048;-43
2021/05/03 03:55:42;;;;;;;2.08;1.30;;;18.30;78.80;;;;;;5092889;28;20083;-44
2021/05/03 03:58:09;;;;;;;5.18;1.70;;;18.30;78.90;;;;;;5091993;28;20052;-43
2021/05/03 04:00:36;;;;;;;5.88;1.42;;;18.30;78.70;;;;;;5075590;28;20055;-43
2021/05/03 04:03:09;;;;;;;4.55;1.40;;;18.30;78.70;;;;;;5091922;28;20544;-43
2021/05/03 04:08:22;;;;;;;1.92;1.38;;;18.20;78.20;;;;;;5091397;28;20048;-45
2021/05/03 04:14:03;;;;;;;1.75;1.00;;;18.20;76.40;;;;;;5093179;28;20044;-43
2021/05/03 04:24:38;;;;;;;3.80;1.55;;;18.40;76.10;;;;;;5091159;28;20165;-48
2021/05/03 04:27:05;;;;;;;2.17;0.98;;;18.40;76.00;;;;;;5091175;28;20050;-43
2021/05/03 04:29:33;;;;;;;2.17;1.00;;;18.50;76.60;;;;;;5090751;28;20048;-44
2021/05/03 04:32:00;;;;;;;4.10;1.23;;;18.50;76.70;;;;;;5084745;28;20056;-46
2021/05/03 04:34:28;;;;;;;1.98;1.10;;;18.60;77.00;;;;;;5087824;28;20042;-45
2021/05/03 04:36:55;;;;;;;3.30;1.80;;;18.60;76.70;;;;;;5090963;28;20413;-44
2021/05/03 04:39:23;;;;;;;3.85;1.15;;;18.60;76.80;;;;;;5075560;28;20555;-44
2021/05/03 04:41:50;;;;;;;3.63;1.63;;;18.70;76.80;;;;;;5074422;28;20045;-47
2021/05/03 04:44:17;;;;;;;2.28;1.65;;;18.80;76.90;;;;;;5081647;28;20406;-45
2021/05/03 04:46:45;;;;;;;3.80;1.83;;;18.80;76.90;;;;;;5067717;28;20072;-44
2021/05/03 04:49:12;;;;;;;3.47;1.30;;;18.90;76.90;;;;;;5063066;28;20045;-46
2021/05/03 04:51:39;;;;;;;1.77;1.10;;;19.00;76.70;;;;;;5068012;28;20438;-44
2021/05/03 04:54:07;;;;;;;2.78;1.50;;;19.00;76.60;;;;;;5076823;28;20076;-44
2021/05/03 04:56:34;;;;;;;3.13;1.33;;;19.00;76.40;;;;;;5076177;28;20089;-44
2021/05/03 04:59:01;;;;;;;4.43;1.55;;;19.10;76.40;;;;;;5077369;28;20049;-45
2021/05/03 05:01:29;;;;;;;4.18;1.77;;;19.20;76.70;;;;;;5054477;28;20478;-45
2021/05/03 05:03:56;;;;;;;3.38;1.50;;;19.20;76.70;;;;;;5081463;28;20127;-44
2021/05/03 05:06:24;;;;;;;4.95;1.58;;;19.40;76.80;;;;;;5078145;28;20086;-45
2021/05/03 05:08:51;;;;;;;3.63;1.52;;;19.40;77.00;;;;;;5085499;28;20497;-45
2021/05/03 05:11:19;;;;;;;2.30;1.40;;;19.50;77.50;;;;;;5094755;28;20040;-43
2021/05/03 05:13:46;;;;;;;5.28;2.35;;;19.60;76.90;;;;;;5094703;28;20051;-43
2021/05/03 05:16:14;;;;;;;4.55;1.80;;;19.70;76.80;;;;;;5095969;28;20044;-43
2021/05/03 05:18:41;;;;;;;5.80;2.22;;;19.80;76.30;;;;;;5093973;28;20063;-44
2021/05/03 05:21:08;;;;;;;3.65;1.67;;;19.90;75.70;;;;;;5084294;28;20500;-44
2021/05/03 05:23:36;;;;;;;3.22;1.85;;;19.90;75.70;;;;;;5065295;28;20059;-44
2021/05/03 05:26:03;;;;;;;4.47;1.60;;;20.00;76.40;;;;;;5073581;28;20052;-43
2021/05/03 05:28:30;;;;;;;4.78;1.38;;;20.00;76.80;;;;;;5086502;28;20066;-43
2021/05/03 05:30:57;;;;;;;4.40;2.00;;;20.10;76.80;;;;;;5094261;28;20055;-42
2021/05/03 05:33:25;;;;;;;5.82;1.90;;;20.10;78.30;;;;;;5095909;28;20062;-44
2021/05/03 05:35:52;;;;;;;11.27;2.75;;;20.20;78.30;;;;;;5078281;28;20040;-49
2021/05/03 05:38:20;;;;;;;17.70;3.55;;;20.20;79.40;;;;;;5094393;28;20048;-44
2021/05/03 05:40:47;;;;;;;10.40;3.42;;;20.40;79.70;;;;;;5094035;28;20414;-47
2021/05/03 05:43:15;;;;;;;4.97;1.90;;;20.40;78.90;;;;;;5094654;28;20496;-44
2021/05/03 05:45:42;;;;;;;3.72;1.20;;;20.50;78.50;;;;;;5095130;28;20543;-45
2021/05/03 05:48:09;;;;;;;4.47;1.63;;;20.50;77.90;;;;;;5077558;28;20048;-44
2021/05/03 05:50:37;;;;;;;7.07;2.10;;;20.50;78.20;;;;;;5078304;28;20044;-47
2021/05/03 05:53:05;;;;;;;4.93;2.03;;;20.50;78.90;;;;;;5093148;28;20056;-44
2021/05/03 05:55:32;;;;;;;2.03;1.25;;;20.50;78.80;;;;;;5095872;28;20570;-44
2021/05/03 05:58:00;;;;;;;1.75;1.30;;;20.40;78.30;;;;;;5077361;28;20048;-44
2021/05/03 06:00:27;;;;;;;6.05;1.60;;;20.40;78.00;;;;;;5078194;28;20055;-44
2021/05/03 06:02:54;;;;;;;4.55;1.77;;;20.40;78.50;;;;;;5093821;28;20117;-44
2021/05/03 06:05:23;;;;;;;4.22;1.60;;;20.40;78.40;;;;;;5094390;28;20101;-44
2021/05/03 06:07:51;;;;;;;3.03;1.30;;;20.50;78.20;;;;;;5094014;28;20044;-46
2021/05/03 06:10:20;;;;;;;3.13;1.42;;;20.50;77.30;;;;;;5094468;28;20058;-45
2021/05/03 06:12:47;;;;;;;5.25;1.73;;;20.60;77.40;;;;;;5093386;28;20059;-45
2021/05/03 06:15:14;;;;;;;3.15;1.20;;;20.70;77.70;;;;;;5094584;28;20052;-45
2021/05/03 06:17:42;;;;;;;2.08;1.20;;;20.90;78.00;;;;;;5093579;28;20079;-51
2021/05/03 06:20:10;;;;;;;7.32;1.20;;;21.00;76.50;;;;;;5076499;28;20052;-45
2021/05/03 06:23:05;;;;;;;6.13;1.55;;;21.20;76.50;;;;;;5116732;27;20368;-46
2021/05/03 06:25:33;;;;;;;4.97;2.10;;;21.30;75.60;;;;;;5067982;28;20057;-45
2021/05/03 06:28:01;;;;;;;2.88;1.67;;;21.40;74.80;;;;;;5067255;28;20127;-46
2021/05/03 06:30:29;;;;;;;3.20;1.40;;;21.40;74.20;;;;;;5068343;28;20053;-44
2021/05/03 06:32:57;;;;;;;4.15;1.33;;;21.40;73.10;;;;;;5068511;28;20163;-45
2021/05/03 06:35:25;;;;;;;5.88;1.95;;;21.40;73.20;;;;;;5044431;28;20049;-46
2021/05/03 06:38:10;;;;;;;7.35;1.77;;;21.40;73.20;;;;;;5069116;28;20072;-45
2021/05/03 06:40:37;;;;;;;7.05;1.85;;;21.50;73.00;;;;;;5070375;28;20044;-44
2021/05/03 06:43:05;;;;;;;4.20;1.20;;;21.60;72.70;;;;;;5069503;28;20057;-45
2021/05/03 06:45:34;;;;;;;2.70;1.48;;;21.70;72.40;;;;;;5086032;28;20040;-45
2021/05/03 06:48:04;;;;;;;2.80;1.33;;;21.90;71.50;;;;;;5068630;28;20049;-45
2021/05/03 06:50:31;;;;;;;2.63;1.45;;;22.00;71.60;;;;;;5070346;28;20463;-45
2021/05/03 06:52:59;;;;;;;3.10;1.55;;;22.10;71.50;;;;;;5068109;28;20049;-48
2021/05/03 06:55:27;;;;;;;4.32;1.50;;;22.10;71.20;;;;;;5069531;28;20049;-45
2021/05/03 06:57:54;;;;;;;2.53;1.35;;;22.00;70.40;;;;;;5064989;28;20135;-47
2021/05/03 07:00:24;;;;;;;5.32;1.52;;;21.90;71.60;;;;;;5035921;28;20134;-46
2021/05/03 07:02:52;;;;;;;11.10;2.35;;;21.90;72.40;;;;;;5051417;28;20049;-48
2021/05/03 07:05:20;;;;;;;6.78;2.17;;;21.80;72.00;;;;;;5052232;28;20131;-45
2021/05/03 07:07:47;;;;;;;2.60;1.60;;;21.80;71.70;;;;;;5051791;28;20049;-47
2021/05/03 07:10:15;;;;;;;3.50;2.50;;;21.90;72.50;;;;;;5052020;28;20065;-50
2021/05/03 07:12:46;;;;;;;5.88;3.17;;;22.00;71.70;;;;;;5051295;28;20036;-53
2021/05/03 07:15:15;;;;;;;4.85;2.83;;;22.10;71.90;;;;;;5068282;28;20060;-48
2021/05/03 07:17:43;;;;;;;3.22;1.45;;;22.30;71.30;;;;;;5067719;28;20051;-50
2021/05/03 07:20:11;;;;;;;3.25;1.33;;;22.50;70.80;;;;;;5051865;28;20122;-46
2021/05/03 07:22:39;;;;;;;3.10;1.35;;;22.60;69.80;;;;;;5067564;28;20144;-49
2021/05/03 07:25:08;;;;;;;4.05;1.27;;;22.70;70.10;;;;;;5068092;28;20049;-45
2021/05/03 07:27:37;;;;;;;3.30;1.38;;;22.80;69.40;;;;;;5067553;28;20577;-47
2021/05/03 07:30:07;;;;;;;3.30;1.00;;;22.90;69.40;;;;;;5068264;28;20049;-45
2021/05/03 07:32:36;;;;;;;5.13;1.67;;;23.10;69.30;;;;;;5065843;28;20103;-45
2021/05/03 07:35:05;;;;;;;2.33;1.77;;;23.00;69.20;;;;;;5055774;28;20083;-45
2021/05/03 07:37:33;;;;;;;2.92;1.83;;;22.90;69.20;;;;;;5055834;28;20135;-45
2021/05/03 07:40:04;;;;;;;4.07;1.38;;;23.00;69.40;;;;;;5021758;28;20438;-47
2021/05/03 07:42:32;;;;;;;2.20;1.40;;;23.00;69.90;;;;;;5055120;28;20045;-50
2021/05/03 07:45:12;;;;;;;4.43;1.02;;;23.10;69.90;;;;;;5055814;28;20136;-48
2021/05/03 07:47:39;;;;;;;3.55;1.30;;;23.00;69.50;;;;;;5055078;28;20037;-46
2021/05/03 07:50:07;;;;;;;5.20;1.73;;;23.10;70.30;;;;;;5054465;28;20406;-48
2021/05/03 07:52:35;;;;;;;4.20;1.63;;;23.10;69.80;;;;;;5021031;28;20097;-47
2021/05/03 07:55:05;;;;;;;2.28;1.30;;;23.20;69.80;;;;;;5055383;28;20060;-45
2021/05/03 07:57:32;;;;;;;2.08;1.20;;;23.10;69.30;;;;;;5055023;28;20044;-53
2021/05/03 08:00:00;;;;;;;2.58;1.70;;;23.00;69.70;;;;;;5054024;28;20483;-47
2021/05/03 08:02:27;;;;;;;3.80;2.45;;;22.90;69.90;;;;;;5036952;28;20414;-47
2021/05/03 08:04:55;;;;;;;4.32;1.70;;;22.80;70.00;;;;;;5053931;28;20076;-45
2021/05/03 08:07:23;;;;;;;5.85;1.40;;;22.80;69.80;;;;;;5053646;28;20376;-48
2021/05/03 08:09:51;;;;;;;3.20;1.40;;;22.70;70.70;;;;;;5053780;28;20045;-46
2021/05/03 08:12:20;;;;;;;6.00;1.90;;;22.80;70.70;;;;;;5053552;28;20041;-45
2021/05/03 08:14:49;;;;;;;2.83;1.65;;;22.90;70.40;;;;;;5035309;28;20045;-45
2021/05/03 08:17:17;;;;;;;3.58;1.40;;;23.00;70.50;;;;;;5053150;28;20059;-46
2021/05/03 08:19:46;;;;;;;5.88;1.77;;;23.10;70.20;;;;;;5036386;28;20048;-45
2021/05/03 08:22:14;;;;;;;2.88;1.30;;;23.40;70.40;;;;;;5054072;28;20072;-48
2021/05/03 08:24:42;;;;;;;5.10;1.33;;;23.50;69.50;;;;;;5020814;28;20144;-46
2021/05/03 08:27:09;;;;;;;3.20;1.83;;;23.70;69.60;;;;;;5052503;28;20049;-50
2021/05/03 08:29:38;;;;;;;4.22;2.15;;;23.80;69.20;;;;;;5053122;28;20064;-45
2021/05/03 08:32:06;;;;;;;10.35;2.00;;;23.90;69.00;;;;;;5053087;28;20049;-45
2021/05/03 08:34:33;;;;;;;9.02;2.10;;;23.90;69.00;;;;;;5054399;28;20541;-45
2021/05/03 08:37:01;;;;;;;6.43;2.17;;;24.10;69.00;;;;;;5019843;28;20044;-46
2021/05/03 08:39:29;;;;;;;3.30;1.60;;;24.40;69.40;;;;;;5051111;28;20041;-46
2021/05/03 08:41:58;;;;;;;4.75;2.28;;;24.50;69.00;;;;;;5051453;28;20053;-49
2021/05/03 08:44:28;;;;;;;3.20;1.92;;;24.70;69.30;;;;;;5053295;28;20099;-45
2021/05/03 08:46:57;;;;;;;4.22;1.80;;;24.80;68.60;;;;;;5054000;28;20548;-50
2021/05/03 08:54:47;;;;;;;2.25;1.40;;;25.10;68.60;;;;;;5053581;28;20132;-47
2021/05/03 08:57:15;;;;;;;3.58;1.33;;;25.20;68.00;;;;;;5053590;28;20048;-46
2021/05/03 08:59:43;;;;;;;3.08;1.45;;;25.20;68.20;;;;;;5053854;28;20044;-47
2021/05/03 09:02:14;;;;;;;4.75;1.88;;;25.20;68.20;;;;;;5053672;28;20134;-47
2021/05/03 09:04:42;;;;;;;2.63;1.20;;;25.30;68.60;;;;;;5054228;28;20069;-47
2021/05/03 09:07:17;;;;;;;3.45;2.00;;;25.40;68.30;;;;;;5052268;28;20560;-48
2021/05/03 09:09:46;;;;;;;3.80;1.60;;;25.40;67.10;;;;;;5053821;28;20136;-49
2021/05/03 09:12:19;;;;;;;2.05;1.25;;;25.50;67.00;;;;;;5053548;28;20044;-48
2021/05/03 09:14:50;;;;;;;5.53;1.83;;;25.60;66.80;;;;;;5053334;28;20127;-49
2021/05/03 09:17:27;;;;;;;3.00;1.33;;;25.40;66.50;;;;;;5052418;28;20060;-48
2021/05/03 09:19:57;;;;;;;6.10;1.45;;;25.50;66.70;;;;;;5049095;28;20067;-48
2021/05/03 09:22:39;;;;;;;4.90;1.73;;;25.50;65.90;;;;;;5051956;28;20052;-49
2021/05/03 09:25:22;;;;;;;3.65;1.60;;;25.50;66.10;;;;;;5051232;28;20108;-50
2021/05/03 09:28:01;;;;;;;3.88;1.48;;;25.50;66.20;;;;;;5053192;28;20045;-47
2021/05/03 09:30:39;;;;;;;4.82;1.45;;;25.60;66.10;;;;;;5045447;28;20057;-48
2021/05/03 09:33:31;;;;;;;3.00;1.10;;;25.80;65.50;;;;;;5051775;28;20049;-48
2021/05/03 09:36:21;;;;;;;3.13;1.88;;;25.80;65.20;;;;;;5052359;28;20132;-48
2021/05/03 09:38:50;;;;;;;1.58;1.05;;;25.70;65.30;;;;;;5053026;28;20546;-46
2021/05/03 09:41:29;;;;;;;4.60;1.83;;;25.60;65.20;;;;;;5070445;28;20365;-45
2021/05/03 09:44:03;;;;;;;2.30;1.15;;;25.70;65.50;;;;;;5064087;28;20127;-49
2021/05/03 09:46:43;;;;;;;3.40;1.20;;;25.70;65.20;;;;;;5050443;28;20060;-48
2021/05/03 09:49:19;;;;;;;2.42;1.67;;;25.60;65.00;;;;;;5061577;28;20048;-46
2021/05/03 09:51:51;;;;;;;1.95;1.35;;;25.60;65.30;;;;;;5050455;28;20053;-46
2021/05/03 09:54:22;;;;;;;3.47;1.50;;;25.50;65.50;;;;;;5061712;28;20049;-45
2021/05/03 09:56:52;;;;;;;4.28;1.58;;;25.60;64.50;;;;;;5047659;28;20388;-47
2021/05/03 09:59:26;;;;;;;4.53;1.40;;;25.50;65.00;;;;;;5056668;28;20195;-48
2021/05/03 10:02:10;;;;;;;2.90;1.67;;;25.60;64.90;;;;;;5068832;28;20139;-49
2021/05/03 10:04:58;;;;;;;3.40;1.45;;;25.60;64.90;;;;;;5058324;28;20051;-47
2021/05/03 10:07:29;;;;;;;4.22;1.40;;;25.60;63.90;;;;;;5066531;28;20049;-45
2021/05/03 10:10:03;;;;;;;7.47;2.15;;;25.60;64.90;;;;;;5037319;28;20057;-46
2021/05/03 10:12:31;;;;;;;2.70;1.50;;;25.40;64.40;;;;;;5031068;28;20568;-47
2021/05/03 10:15:06;;;;;;;2.75;1.45;;;25.30;65.40;;;;;;5036819;28;20049;-46
2021/05/03 10:17:37;;;;;;;7.07;1.60;;;25.30;65.30;;;;;;5031038;28;20041;-48
2021/05/03 10:20:06;;;;;;;3.90;1.30;;;25.40;65.50;;;;;;5037525;28;20080;-46
2021/05/03 10:22:34;;;;;;;6.05;1.80;;;25.40;65.00;;;;;;5031048;28;20041;-46
2021/05/03 10:25:13;;;;;;;5.45;2.00;;;25.20;65.00;;;;;;5036980;28;20058;-46
2021/05/03 10:27:43;;;;;;;4.40;2.00;;;25.10;65.70;;;;;;5031098;28;20060;-46
2021/05/03 10:30:19;;;;;;;4.40;1.70;;;25.10;66.00;;;;;;5037467;28;20198;-45
2021/05/03 10:33:09;;;;;;;5.85;1.67;;;25.10;65.10;;;;;;5030709;28;20441;-45
2021/05/03 10:35:47;;;;;;;2.28;1.40;;;25.10;65.50;;;;;;5041907;28;20053;-47
2021/05/03 10:38:32;;;;;;;1.95;1.27;;;24.80;65.60;;;;;;5041780;28;20050;-47
2021/05/03 10:41:02;;;;;;;3.33;1.40;;;24.80;66.30;;;;;;5031341;28;20543;-48
2021/05/03 10:43:43;;;;;;;3.42;1.50;;;24.80;66.30;;;;;;5034881;28;20045;-50
2021/05/03 10:49:06;;;;;;;3.33;1.48;;;24.90;66.70;;;;;;5038351;28;20136;-50
2021/05/03 10:51:48;;;;;;;3.78;1.60;;;25.00;65.80;;;;;;5021876;28;20119;-46
2021/05/03 10:54:24;;;;;;;7.85;2.55;;;24.90;65.60;;;;;;5025749;28;20049;-49
2021/05/03 10:56:53;;;;;;;5.32;1.50;;;25.00;66.80;;;;;;5014691;28;20056;-46
2021/05/03 10:59:20;;;;;;;2.35;1.10;;;24.90;66.10;;;;;;5025944;28;20045;-46
2021/05/03 11:01:54;;;;;;;3.30;2.10;;;25.00;66.50;;;;;;5014539;28;20136;-46
2021/05/03 11:04:22;;;;;;;5.47;1.67;;;25.00;66.20;;;;;;5021593;28;20057;-48
2021/05/03 11:06:49;;;;;;;4.38;1.40;;;24.90;66.60;;;;;;5027146;28;20452;-45
2021/05/03 11:09:27;;;;;;;2.92;1.73;;;24.90;67.10;;;;;;5019920;28;20132;-46
2021/05/03 11:12:00;;;;;;;5.75;1.67;;;24.80;66.70;;;;;;5026434;28;20168;-46
2021/05/03 11:14:31;;;;;;;5.70;1.80;;;24.90;67.00;;;;;;5021993;28;20049;-46
2021/05/03 11:17:02;;;;;;;5.20;2.08;;;24.90;67.60;;;;;;5033244;28;20041;-46
2021/05/03 11:20:00;;;;;;;6.75;1.67;;;25.00;67.80;;;;;;5024740;28;20046;-46
2021/05/03 11:22:39;;;;;;;3.88;1.60;;;24.90;67.30;;;;;;5016701;28;20148;-45
2021/05/03 11:25:18;;;;;;;4.90;2.25;;;24.80;67.40;;;;;;5022732;28;20090;-45
2021/05/03 11:46:40;;;;;;;3.33;1.80;;;24.60;70.80;;;;;;5015013;28;20424;-45
2021/05/03 11:49:13;;;;;;;3.92;1.58;;;24.50;71.20;;;;;;5024445;28;20064;-46
2021/05/03 11:51:52;;;;;;;3.05;1.60;;;24.50;70.80;;;;;;5026912;28;20080;-47
2021/05/03 11:54:43;;;;;;;7.90;3.08;;;24.40;71.30;;;;;;5025350;28;20045;-45
2021/05/03 11:57:16;;;;;;;3.13;1.85;;;24.30;70.80;;;;;;5015962;28;20507;-46
2021/05/03 11:59:44;;;;;;;5.57;1.38;;;24.40;71.40;;;;;;5024671;28;20053;-47
2021/05/03 12:02:14;;;;;;;4.35;1.85;;;24.30;72.20;;;;;;5029256;28;20400;-46
2021/05/03 12:04:45;;;;;;;6.15;2.47;;;24.30;71.90;;;;;;5022778;28;20057;-46
2021/05/03 12:07:32;;;;;;;3.20;1.45;;;24.30;71.30;;;;;;5015467;28;20054;-48
2021/05/03 12:10:18;;;;;;;5.00;1.67;;;24.40;72.50;;;;;;5023233;28;20104;-47
2021/05/03 12:12:54;;;;;;;6.30;2.30;;;24.40;74.00;;;;;;5026747;28;20077;-45
2021/05/03 12:15:26;;;;;;;3.83;1.83;;;24.30;75.00;;;;;;5030351;28;20053;-49
2021/05/03 12:17:57;;;;;;;7.60;1.65;;;24.20;75.20;;;;;;5023903;28;20050;-45
2021/05/03 12:20:26;;;;;;;4.03;2.10;;;24.10;75.30;;;;;;5014411;28;20046;-50
2021/05/03 12:23:08;;;;;;;3.17;1.42;;;24.10;76.70;;;;;;5021404;28;20053;-49
2021/05/03 12:25:45;;;;;;;4.57;1.88;;;24.10;77.50;;;;;;5029651;28;20402;-49
2021/05/03 12:28:15;;;;;;;6.40;1.92;;;24.10;77.90;;;;;;5030945;28;20403;-47
2021/05/03 12:30:43;;;;;;;6.95;1.55;;;24.00;77.20;;;;;;5020297;28;20065;-53
2021/05/03 12:33:13;;;;;;;4.15;1.80;;;24.10;77.40;;;;;;5022825;28;20491;-45
2021/05/03 12:35:41;;;;;;;4.35;1.80;;;24.10;77.30;;;;;;5026295;28;20049;-46
2021/05/03 12:38:23;;;;;;;5.78;2.40;;;24.10;77.90;;;;;;5017817;28;20046;-46
2021/05/03 12:40:51;;;;;;;4.53;2.13;;;24.10;78.10;;;;;;5018650;28;20061;-46
2021/05/03 12:43:30;;;;;;;4.22;2.00;;;24.10;79.30;;;;;;5020088;28;20132;-47
2021/05/03 12:48:52;;;;;;;4.50;1.80;;;24.10;78.50;;;;;;5020520;28;20041;-47
2021/05/03 12:59:56;;;;;;;32.90;7.72;;;24.10;80.50;;;;;;5028253;28;20053;-46
2021/05/03 13:10:44;;;;;;;5.65;1.52;;;24.00;81.70;;;;;;5021971;28;20141;-46
2021/05/03 13:30:31;;;;;;;7.53;2.05;;;23.60;83.60;;;;;;5023257;28;20053;-47
2021/05/03 13:32:59;;;;;;;6.75;1.98;;;23.40;84.20;;;;;;5014527;28;20088;-47
2021/05/03 13:35:27;;;;;;;3.90;2.10;;;23.30;84.60;;;;;;5021272;28;20129;-46
2021/05/03 13:37:55;;;;;;;9.50;3.08;;;23.30;85.10;;;;;;5014202;28;20104;-47
2021/05/03 13:40:23;;;;;;;5.72;2.10;;;23.30;85.40;;;;;;5021171;28;20058;-48
2021/05/03 13:42:54;;;;;;;4.60;2.95;;;23.20;85.40;;;;;;5014167;28;20507;-46
2021/05/03 13:45:22;;;;;;;7.20;2.70;;;23.20;85.50;;;;;;5023823;28;20353;-46
2021/05/03 13:47:51;;;;;;;4.72;2.28;;;23.20;85.60;;;;;;5030807;28;20536;-49
2021/05/03 13:50:19;;;;;;;6.57;2.00;;;23.20;85.70;;;;;;5023903;28;20152;-47
2021/05/03 13:52:46;;;;;;;4.68;2.03;;;23.20;85.60;;;;;;5027670;28;20066;-46
2021/05/03 13:55:14;;;;;;;7.60;5.10;;;23.20;85.60;;;;;;5021879;28;20442;-46
2021/05/03 13:57:42;;;;;;;6.70;3.50;;;23.10;85.90;;;;;;5015076;28;20057;-46
2021/05/03 14:00:09;;;;;;;5.40;1.98;;;23.10;86.00;;;;;;5021191;28;20042;-48
2021/05/03 14:02:41;;;;;;;4.00;2.42;;;23.10;86.30;;;;;;5012963;28;20108;-46
2021/05/03 14:05:09;;;;;;;3.63;1.67;;;23.00;86.30;;;;;;5053131;28;20579;-46
2021/05/03 14:07:38;;;;;;;4.38;2.40;;;22.90;86.10;;;;;;5013962;28;20045;-48
2021/05/03 14:10:06;;;;;;;5.57;2.13;;;22.80;86.30;;;;;;5021260;28;20050;-47
2021/05/03 14:12:33;;;;;;;5.03;2.50;;;22.80;86.90;;;;;;5016162;28;20049;-47
2021/05/03 14:15:00;;;;;;;6.13;2.47;;;22.80;87.30;;;;;;5027152;28;20050;-46
2021/05/03 14:17:28;;;;;;;5.15;3.22;;;22.80;87.50;;;;;;5027293;28;20056;-47